createdAt,value
2023-04-08T00:01:00.581Z,8.90
2023-04-08T00:03:29.266Z,8.90
2023-04-08T00:05:57.887Z,8.90
2023-04-08T00:08:26.464Z,8.90
2023-04-08T00:10:55.164Z,8.80
2023-04-08T00:13:23.733Z,8.80
2023-04-08T00:15:52.236Z,8.80
2023-04-08T00:18:22.113Z,8.80
2023-04-08T00:20:50.674Z,8.80
2023-04-08T00:23:21.294Z,8.70
2023-04-08T00:25:49.847Z,8.70
2023-04-08T00:28:18.336Z,8.70
2023-04-08T00:30:47.061Z,8.70
2023-04-08T00:33:16.640Z,8.70
2023-04-08T00:35:46.704Z,8.70
2023-04-08T00:38:15.460Z,8.70
2023-04-08T00:40:44.205Z,8.60
2023-04-08T00:43:13.081Z,8.60
2023-04-08T00:45:41.680Z,8.50
2023-04-08T00:48:10.378Z,8.50
2023-04-08T00:50:38.981Z,8.50
2023-04-08T00:53:08.886Z,8.40
2023-04-08T00:55:37.482Z,8.40
2023-04-08T00:58:05.999Z,8.40
2023-04-08T01:00:36.667Z,8.30
2023-04-08T01:03:11.004Z,8.30
2023-04-08T01:05:49.853Z,8.20
2023-04-08T01:08:19.819Z,8.20
2023-04-08T01:10:52.109Z,8.20
2023-04-08T01:13:24.774Z,8.20
2023-04-08T01:15:55.613Z,8.20
2023-04-08T01:18:25.352Z,8.10
2023-04-08T01:20:56.243Z,8.10
2023-04-08T01:23:34.175Z,8.00
2023-04-08T01:26:04.484Z,8.00
2023-04-08T01:28:35.691Z,7.90
2023-04-08T01:31:04.978Z,7.90
2023-04-08T01:33:35.139Z,7.90
2023-04-08T01:36:04.725Z,7.80
2023-04-08T01:38:34.638Z,7.90
2023-04-08T01:41:06.702Z,7.90
2023-04-08T01:43:36.569Z,7.90
2023-04-08T01:46:09.371Z,7.90
2023-04-08T01:48:38.626Z,7.90
2023-04-08T01:51:07.839Z,7.90
2023-04-08T01:53:38.203Z,7.80
2023-04-08T01:56:13.378Z,7.80
2023-04-08T01:58:47.561Z,7.80
2023-04-08T02:01:20.236Z,7.70
2023-04-08T02:03:53.155Z,7.70
2023-04-08T02:06:21.782Z,7.70
2023-04-08T02:08:50.580Z,7.70
2023-04-08T02:11:21.231Z,7.60
2023-04-08T02:13:50.335Z,7.60
2023-04-08T02:16:24.080Z,7.60
2023-04-08T02:18:58.042Z,7.60
2023-04-08T02:21:34.289Z,7.60
2023-04-08T02:24:06.301Z,7.60
2023-04-08T02:26:38.602Z,7.60
2023-04-08T02:29:10.782Z,7.60
2023-04-08T02:31:41.409Z,7.60
2023-04-08T02:34:11.760Z,7.60
2023-04-08T02:36:41.137Z,7.60
2023-04-08T02:39:09.826Z,7.60
2023-04-08T02:41:39.782Z,7.60
2023-04-08T02:44:08.342Z,7.50
2023-04-08T02:46:42.165Z,7.50
2023-04-08T02:49:10.685Z,7.50
2023-04-08T02:51:39.201Z,7.40
2023-04-08T02:54:07.694Z,7.40
2023-04-08T02:56:36.533Z,7.40
2023-04-08T02:59:06.526Z,7.40
2023-04-08T03:01:35.165Z,7.30
2023-04-08T03:04:03.902Z,7.30
2023-04-08T03:06:32.807Z,7.30
2023-04-08T03:09:01.309Z,7.30
2023-04-08T03:11:29.834Z,7.30
2023-04-08T03:13:58.476Z,7.20
2023-04-08T03:16:28.502Z,7.20
2023-04-08T03:18:57.045Z,7.30
2023-04-08T03:21:26.754Z,7.30
2023-04-08T03:23:55.288Z,7.30
2023-04-08T03:26:23.799Z,7.30
2023-04-08T03:28:53.974Z,7.20
2023-04-08T03:31:22.720Z,7.20
2023-04-08T03:33:52.696Z,7.20
2023-04-08T03:36:21.233Z,7.20
2023-04-08T03:38:49.902Z,7.30
2023-04-08T03:41:18.539Z,7.10
2023-04-08T03:43:47.044Z,7.10
2023-04-08T03:46:15.665Z,7.10
2023-04-08T03:48:44.183Z,7.10
2023-04-08T03:51:14.099Z,7.00
2023-04-08T03:53:42.600Z,7.00
2023-04-08T03:56:11.309Z,7.00
2023-04-08T03:58:39.868Z,7.10
2023-04-08T04:01:08.413Z,6.90
2023-04-08T04:03:37.170Z,6.90
2023-04-08T04:06:05.815Z,6.80
2023-04-08T04:08:35.801Z,6.80
2023-04-08T04:11:04.346Z,6.80
2023-04-08T04:13:32.914Z,6.80
2023-04-08T04:16:01.483Z,6.80
2023-04-08T04:18:30.200Z,6.80
2023-04-08T04:20:58.789Z,6.80
2023-04-08T04:23:27.371Z,6.70
2023-04-08T04:25:57.319Z,6.70
2023-04-08T04:28:26.019Z,6.70
2023-04-08T04:30:56.475Z,6.60
2023-04-08T04:33:25.745Z,6.60
2023-04-08T04:35:54.429Z,6.60
2023-04-08T04:38:22.974Z,6.60
2023-04-08T04:40:51.610Z,6.70
2023-04-08T04:43:21.527Z,6.60
2023-04-08T04:45:49.988Z,6.60
2023-04-08T04:48:18.554Z,6.60
2023-04-08T04:50:55.948Z,6.60
2023-04-08T04:53:24.642Z,6.60
2023-04-08T04:55:53.270Z,6.50
2023-04-08T04:58:23.146Z,6.50
2023-04-08T05:00:51.733Z,6.50
2023-04-08T05:03:20.649Z,6.50
2023-04-08T05:05:53.401Z,6.50
2023-04-08T05:08:22.873Z,6.50
2023-04-08T05:10:51.383Z,6.50
2023-04-08T05:13:20.221Z,6.50
2023-04-08T05:15:50.197Z,6.40
2023-04-08T05:18:18.740Z,6.40
2023-04-08T05:20:47.357Z,6.30
2023-04-08T05:23:15.893Z,6.30
2023-04-08T05:25:44.385Z,6.20
2023-04-08T05:28:12.957Z,6.20
2023-04-08T05:30:41.916Z,6.20
2023-04-08T05:33:11.843Z,6.20
2023-04-08T05:35:40.460Z,6.10
2023-04-08T05:38:09.008Z,6.10
2023-04-08T05:40:37.497Z,6.10
2023-04-08T05:43:06.019Z,6.10
2023-04-08T05:45:34.545Z,6.00
2023-04-08T05:48:03.099Z,6.00
2023-04-08T05:50:32.964Z,6.00
2023-04-08T05:53:01.739Z,5.90
2023-04-08T05:55:30.380Z,5.90
2023-04-08T05:57:58.903Z,5.90
2023-04-08T06:00:27.415Z,5.90
2023-04-08T06:02:56.097Z,5.90
2023-04-08T06:05:24.801Z,6.00
2023-04-08T06:07:54.745Z,6.10
2023-04-08T06:10:24.102Z,6.00
2023-04-08T06:12:52.707Z,6.10
2023-04-08T06:15:21.377Z,6.20
2023-04-08T06:17:49.980Z,6.20
2023-04-08T06:20:18.523Z,6.30
2023-04-08T06:22:47.053Z,6.50
2023-04-08T06:25:17.078Z,6.70
2023-04-08T06:27:45.727Z,7.00
2023-04-08T06:30:14.448Z,7.40
2023-04-08T06:32:42.994Z,7.90
2023-04-08T06:35:11.672Z,8.30
2023-04-08T06:37:40.269Z,8.70
2023-04-08T06:40:09.713Z,9.10
2023-04-08T06:42:40.916Z,9.60
2023-04-08T06:45:19.730Z,10.00
2023-04-08T06:47:48.456Z,10.50
2023-04-08T06:50:17.128Z,10.90
2023-04-08T06:52:45.705Z,11.30
2023-04-08T06:55:14.586Z,11.70
2023-04-08T06:57:44.553Z,11.90
2023-04-08T07:00:13.915Z,12.10
2023-04-08T07:02:42.582Z,12.30
2023-04-08T07:05:11.339Z,12.70
2023-04-08T07:07:39.904Z,13.00
2023-04-08T07:10:11.104Z,13.90
2023-04-08T07:12:39.939Z,14.30
2023-04-08T07:15:11.366Z,14.90
2023-04-08T07:17:40.451Z,15.20
2023-04-08T07:20:09.972Z,15.40
2023-04-08T07:22:38.594Z,15.60
2023-04-08T07:25:07.892Z,15.80
2023-04-08T07:27:36.684Z,16.00
2023-04-08T07:30:06.105Z,16.20
2023-04-08T07:32:36.791Z,16.30
2023-04-08T07:35:06.444Z,16.30
2023-04-08T07:37:34.930Z,16.20
2023-04-08T07:40:03.498Z,16.10
2023-04-08T07:42:32.125Z,16.10
2023-04-08T07:45:00.701Z,16.20
2023-04-08T07:47:29.371Z,16.20
2023-04-08T07:49:59.519Z,16.40
2023-04-08T07:52:28.247Z,16.70
2023-04-08T07:54:57.002Z,16.90
2023-04-08T07:57:35.617Z,17.20
2023-04-08T08:00:05.675Z,17.60
2023-04-08T08:02:45.445Z,18.00
2023-04-08T08:05:19.401Z,18.40
2023-04-08T08:07:52.296Z,18.70
2023-04-08T08:10:32.246Z,18.80
2023-04-08T08:13:01.063Z,18.90
2023-04-08T08:15:29.688Z,19.20
2023-04-08T08:17:58.382Z,19.40
2023-04-08T08:20:28.621Z,19.70
2023-04-08T08:22:57.983Z,19.90
2023-04-08T08:25:26.683Z,20.00
2023-04-08T08:27:55.480Z,20.20
2023-04-08T08:30:25.166Z,20.30
2023-04-08T08:32:54.009Z,20.20
2023-04-08T08:35:22.750Z,20.10
2023-04-08T08:37:52.782Z,20.00
2023-04-08T08:40:21.759Z,20.00
2023-04-08T08:42:54.316Z,20.00
2023-04-08T08:45:23.020Z,20.00
2023-04-08T08:47:52.974Z,20.10
2023-04-08T08:50:21.860Z,20.30
2023-04-08T08:52:52.856Z,20.50
2023-04-08T08:55:41.505Z,20.70
2023-04-08T08:58:10.980Z,20.80
2023-04-08T09:00:41.123Z,20.80
2023-04-08T09:03:18.270Z,20.60
2023-04-08T09:05:52.469Z,20.40
2023-04-08T09:08:31.428Z,20.40
2023-04-08T09:11:13.943Z,20.20
2023-04-08T09:13:43.201Z,20.10
2023-04-08T09:16:13.977Z,20.20
2023-04-08T09:18:44.697Z,20.20
2023-04-08T09:21:15.563Z,20.30
2023-04-08T09:23:47.221Z,20.40
2023-04-08T09:26:17.234Z,20.60
2023-04-08T09:28:59.608Z,20.70
2023-04-08T09:31:31.774Z,20.70
2023-04-08T09:34:02.440Z,20.60
2023-04-08T09:36:31.156Z,20.50
2023-04-08T09:39:01.344Z,20.40
2023-04-08T09:41:30.953Z,20.40
2023-04-08T09:44:01.256Z,20.30
2023-04-08T09:46:34.646Z,20.20
2023-04-08T09:49:07.469Z,20.00
2023-04-08T09:51:42.143Z,19.80
2023-04-08T09:54:16.106Z,19.50
2023-04-08T09:56:52.453Z,19.30
2023-04-08T09:59:23.991Z,19.20
2023-04-08T10:01:57.438Z,19.10
2023-04-08T10:04:27.715Z,19.10
2023-04-08T10:07:02.030Z,19.10
2023-04-08T10:09:33.419Z,19.00
2023-04-08T10:12:03.142Z,19.10
2023-04-08T10:14:32.655Z,19.20
2023-04-08T10:17:27.364Z,19.20
2023-04-08T10:19:58.712Z,19.10
2023-04-08T10:22:49.791Z,19.10
2023-04-08T10:25:33.473Z,18.90
2023-04-08T10:28:03.538Z,18.80
2023-04-08T10:30:45.849Z,18.80
2023-04-08T10:33:17.255Z,18.70
2023-04-08T10:35:52.452Z,18.50
2023-04-08T10:38:22.229Z,18.40
2023-04-08T10:40:54.059Z,18.30
2023-04-08T10:43:24.308Z,18.10
2023-04-08T10:45:55.232Z,18.20
2023-04-08T10:48:25.662Z,18.30
2023-04-08T10:50:55.900Z,18.30
2023-04-08T10:53:29.644Z,18.40
2023-04-08T10:56:07.547Z,18.50
2023-04-08T10:58:37.562Z,18.60
2023-04-08T11:01:08.404Z,18.60
2023-04-08T11:03:38.067Z,18.50
2023-04-08T11:06:07.594Z,18.40
2023-04-08T11:08:37.787Z,18.40
2023-04-08T11:11:10.967Z,18.50
2023-04-08T11:13:51.111Z,18.70
2023-04-08T11:16:23.123Z,18.80
2023-04-08T11:18:52.758Z,19.10
2023-04-08T11:21:22.306Z,19.30
2023-04-08T11:23:51.759Z,19.50
2023-04-08T11:26:22.170Z,19.70
2023-04-08T11:28:51.903Z,19.90
2023-04-08T11:31:24.336Z,20.10
2023-04-08T11:33:56.201Z,20.20
2023-04-08T11:36:26.032Z,20.20
2023-04-08T11:38:56.333Z,20.30
2023-04-08T11:41:26.674Z,20.20
2023-04-08T11:44:09.903Z,19.80
2023-04-08T11:47:14.442Z,19.40
2023-04-08T11:49:50.754Z,19.00
2023-04-08T11:52:27.211Z,18.70
2023-04-08T11:54:59.818Z,18.60
2023-04-08T11:57:32.840Z,18.90
2023-04-08T12:00:01.703Z,19.10
2023-04-08T12:02:30.469Z,19.40
2023-04-08T12:04:59.081Z,19.60
2023-04-08T12:07:28.163Z,19.80
2023-04-08T12:09:56.932Z,20.10
2023-04-08T12:12:25.613Z,20.20
2023-04-08T12:14:55.588Z,20.20
2023-04-08T12:17:24.365Z,20.50
2023-04-08T12:19:53.176Z,20.90
2023-04-08T12:22:22.143Z,21.00
2023-04-08T12:24:50.988Z,21.00
2023-04-08T12:27:19.897Z,21.00
2023-04-08T12:29:49.849Z,21.20
2023-04-08T12:32:20.156Z,21.40
2023-04-08T12:34:48.830Z,21.70
2023-04-08T12:37:17.554Z,21.60
2023-04-08T12:39:46.200Z,21.50
2023-04-08T12:42:15.004Z,21.40
2023-04-08T12:44:43.726Z,21.30
2023-04-08T12:47:12.425Z,21.20
2023-04-08T12:49:49.354Z,21.10
2023-04-08T12:52:18.899Z,20.70
2023-04-08T12:54:47.686Z,20.40
2023-04-08T12:57:20.782Z,20.00
2023-04-08T13:00:08.810Z,19.60
2023-04-08T13:02:42.504Z,19.30
2023-04-08T13:05:26.287Z,19.00
2023-04-08T13:08:02.172Z,18.80
2023-04-08T13:10:36.661Z,18.80
2023-04-08T13:13:23.019Z,18.80
2023-04-08T13:15:52.207Z,19.10
2023-04-08T13:18:20.807Z,19.60
2023-04-08T13:20:50.879Z,20.20
2023-04-08T13:23:19.507Z,20.90
2023-04-08T13:25:48.657Z,21.30
2023-04-08T13:28:17.642Z,21.20
2023-04-08T13:30:46.461Z,20.90
2023-04-08T13:33:15.172Z,20.80
2023-04-08T13:35:43.894Z,20.90
2023-04-08T13:38:14.350Z,21.10
2023-04-08T13:40:43.804Z,21.30
2023-04-08T13:43:12.700Z,21.50
2023-04-08T13:45:41.857Z,21.80
2023-04-08T13:48:10.728Z,21.80
2023-04-08T13:50:40.372Z,21.90
2023-04-08T13:53:08.992Z,21.60
2023-04-08T13:55:39.061Z,21.30
2023-04-08T13:58:17.218Z,21.20
2023-04-08T14:00:52.742Z,21.00
2023-04-08T14:03:21.486Z,21.00
2023-04-08T14:05:51.086Z,20.90
2023-04-08T14:08:25.703Z,20.70
2023-04-08T14:10:59.972Z,20.40
2023-04-08T14:13:29.313Z,20.20
2023-04-08T14:15:58.507Z,20.10
2023-04-08T14:18:27.507Z,20.50
2023-04-08T14:20:56.501Z,20.80
2023-04-08T14:23:25.325Z,20.80
2023-04-08T14:25:55.384Z,20.60
2023-04-08T14:28:23.992Z,20.30
2023-04-08T14:30:52.711Z,20.40
2023-04-08T14:33:21.451Z,20.60
2023-04-08T14:35:50.090Z,20.90
2023-04-08T14:38:20.667Z,21.20
2023-04-08T14:40:49.661Z,21.00
2023-04-08T14:43:28.654Z,20.50
2023-04-08T14:46:01.499Z,20.20
2023-04-08T14:48:30.787Z,20.10
2023-04-08T14:51:00.071Z,20.30
2023-04-08T14:53:32.114Z,20.30
2023-04-08T14:59:13.905Z,20.00
2023-04-08T15:02:01.249Z,19.40
2023-04-08T15:04:36.301Z,19.30
2023-04-08T15:07:05.505Z,19.30
2023-04-08T15:09:37.166Z,19.40
2023-04-08T15:12:13.646Z,19.40
2023-04-08T15:14:45.883Z,19.50
2023-04-08T15:17:14.834Z,19.70
2023-04-08T15:19:44.943Z,19.80
2023-04-08T15:22:23.389Z,19.90
2023-04-08T15:24:52.696Z,20.00
2023-04-08T15:27:22.925Z,20.10
2023-04-08T15:29:59.932Z,20.00
2023-04-08T15:32:49.092Z,19.90
2023-04-08T15:35:18.084Z,19.30
2023-04-08T15:37:46.688Z,19.20
2023-04-08T15:40:15.304Z,18.70
2023-04-08T15:42:44.673Z,18.30
2023-04-08T15:45:15.088Z,17.90
2023-04-08T15:47:43.676Z,17.50
2023-04-08T15:50:13.034Z,17.30
2023-04-08T15:52:41.529Z,17.00
2023-04-08T15:55:10.633Z,16.80
2023-04-08T15:57:39.214Z,16.70
2023-04-08T16:00:12.012Z,16.80
2023-04-08T16:02:46.535Z,17.10
2023-04-08T16:05:15.668Z,17.50
2023-04-08T16:07:44.294Z,17.90
2023-04-08T16:10:12.884Z,18.10
2023-04-08T16:12:41.560Z,18.30
2023-04-08T16:15:10.757Z,18.60
2023-04-08T16:17:39.340Z,18.90
2023-04-08T16:20:10.627Z,19.20
2023-04-08T16:22:39.297Z,19.40
2023-04-08T16:25:08.549Z,19.60
2023-04-08T16:27:38.376Z,19.90
2023-04-08T16:30:08.029Z,20.00
2023-04-08T16:32:36.815Z,20.10
2023-04-08T16:35:05.971Z,20.10
2023-04-08T16:37:35.971Z,19.70
2023-04-08T16:40:04.826Z,19.10
2023-04-08T16:42:33.879Z,18.70
2023-04-08T16:45:02.429Z,18.60
2023-04-08T16:47:31.641Z,18.50
2023-04-08T16:50:00.384Z,18.50
2023-04-08T16:52:28.908Z,18.60
2023-04-08T16:54:58.892Z,18.60
2023-04-08T16:57:27.875Z,18.70
2023-04-08T16:59:56.433Z,18.80
2023-04-08T17:02:25.949Z,19.00
2023-04-08T17:04:54.657Z,19.10
2023-04-08T17:07:23.208Z,19.10
2023-04-08T17:09:52.782Z,19.00
2023-04-08T17:12:22.836Z,18.90
2023-04-08T17:14:51.404Z,18.80
2023-04-08T17:17:20.538Z,18.70
2023-04-08T17:19:49.101Z,18.50
2023-04-08T17:22:17.700Z,18.10
2023-04-08T17:24:47.974Z,17.80
2023-04-08T17:27:16.697Z,17.40
2023-04-08T17:29:46.693Z,17.00
2023-04-08T17:32:15.256Z,16.50
2023-04-08T17:34:43.769Z,16.10
2023-04-08T17:37:12.330Z,15.80
2023-04-08T17:39:41.561Z,15.40
2023-04-08T17:42:10.158Z,15.20
2023-04-08T17:44:41.917Z,14.90
2023-04-08T17:47:11.840Z,14.70
2023-04-08T17:49:40.932Z,14.60
2023-04-08T17:52:09.485Z,14.40
2023-04-08T17:54:37.995Z,14.40
2023-04-08T17:57:06.551Z,14.20
2023-04-08T17:59:35.385Z,14.10
2023-04-08T18:02:03.996Z,13.90
2023-04-08T18:04:34.086Z,13.90
2023-04-08T18:07:04.458Z,13.60
2023-04-08T18:09:33.026Z,13.50
2023-04-08T18:12:01.627Z,13.40
2023-04-08T18:14:30.399Z,13.30
2023-04-08T18:16:59.006Z,13.20
2023-04-08T18:19:27.700Z,13.10
2023-04-08T18:21:57.712Z,12.90
2023-04-08T18:24:26.287Z,12.80
2023-04-08T18:27:03.889Z,12.70
2023-04-08T18:29:33.187Z,12.60
2023-04-08T18:32:01.750Z,12.50
2023-04-08T18:34:31.922Z,12.50
2023-04-08T18:37:01.893Z,12.50
2023-04-08T18:39:30.463Z,12.40
2023-04-08T18:41:59.004Z,12.30
2023-04-08T18:44:27.545Z,12.30
2023-04-08T18:46:56.496Z,12.20
2023-04-08T18:49:25.100Z,12.30
2023-04-08T18:52:01.711Z,12.20
2023-04-08T18:54:33.221Z,12.10
2023-04-08T18:57:02.704Z,12.10
2023-04-08T18:59:31.498Z,12.00
2023-04-08T19:02:00.218Z,12.00
2023-04-08T19:04:28.895Z,12.00
2023-04-08T19:06:57.598Z,12.00
2023-04-08T19:09:26.183Z,11.90
2023-04-08T19:11:56.284Z,11.90
2023-04-08T19:14:25.507Z,11.90
2023-04-08T19:16:54.076Z,11.90
2023-04-08T19:19:23.094Z,11.80
2023-04-08T19:21:51.649Z,11.80
2023-04-08T19:24:20.821Z,11.80
2023-04-08T19:26:50.795Z,11.90
2023-04-08T19:29:23.032Z,11.80
2023-04-08T19:31:52.793Z,11.80
2023-04-08T19:34:21.438Z,11.80
2023-04-08T19:36:50.099Z,11.80
2023-04-08T19:39:19.192Z,11.80
2023-04-08T19:41:48.162Z,11.80
2023-04-08T19:44:16.932Z,11.70
2023-04-08T19:46:47.156Z,11.70
2023-04-08T19:49:16.026Z,11.60
2023-04-08T19:51:44.610Z,11.50
2023-04-08T19:54:13.166Z,11.40
2023-04-08T19:56:41.724Z,11.40
2023-04-08T19:59:10.803Z,11.30
2023-04-08T20:01:40.389Z,11.10
2023-04-08T20:04:10.427Z,11.10
2023-04-08T20:06:39.188Z,11.00
2023-04-08T20:09:07.818Z,10.90
2023-04-08T20:11:36.385Z,10.80
2023-04-08T20:14:05.131Z,10.70
2023-04-08T20:16:34.115Z,10.60
2023-04-08T20:19:02.839Z,10.60
2023-04-08T20:21:32.830Z,10.50
2023-04-08T20:24:01.608Z,10.30
2023-04-08T20:26:30.166Z,10.30
2023-04-08T20:28:59.220Z,10.20
2023-04-08T20:31:28.035Z,10.10
2023-04-08T20:33:56.637Z,10.00
2023-04-08T20:36:25.722Z,10.00
2023-04-08T20:38:56.019Z,9.90
2023-04-08T20:41:25.936Z,9.80
2023-04-08T20:43:55.058Z,9.70
2023-04-08T20:46:24.614Z,9.70
2023-04-08T20:48:53.636Z,9.60
2023-04-08T20:51:22.556Z,9.50
2023-04-08T20:53:51.102Z,9.40
2023-04-08T20:56:21.147Z,9.40
2023-04-08T20:58:49.954Z,9.30
2023-04-08T21:01:18.760Z,9.30
2023-04-08T21:03:47.976Z,9.20
2023-04-08T21:06:19.909Z,9.20
2023-04-08T21:08:49.435Z,9.20
2023-04-08T21:11:20.059Z,9.20
2023-04-08T21:13:49.198Z,9.10
2023-04-08T21:16:18.017Z,9.20
2023-04-08T21:18:46.543Z,9.20
2023-04-08T21:21:15.133Z,9.30
2023-04-08T21:23:43.677Z,9.30
2023-04-08T21:26:13.325Z,9.40
2023-04-08T21:28:43.956Z,9.50
2023-04-08T21:31:13.267Z,9.60
2023-04-08T21:33:41.917Z,9.70
2023-04-08T21:36:10.768Z,9.70
2023-04-08T21:38:39.487Z,9.80
2023-04-08T21:41:08.037Z,9.80
2023-04-08T21:43:36.690Z,9.80
2023-04-08T21:46:07.049Z,9.80
2023-04-08T21:48:35.989Z,9.80
2023-04-08T21:51:07.014Z,9.80
2023-04-08T21:53:35.943Z,9.80
2023-04-08T21:56:04.803Z,9.80
2023-04-08T21:58:33.792Z,9.80
2023-04-08T22:01:02.615Z,9.80
2023-04-08T22:03:32.768Z,9.90
2023-04-08T22:06:01.598Z,9.80
2023-04-08T22:08:32.391Z,9.90
2023-04-08T22:11:00.938Z,9.80
2023-04-08T22:13:29.463Z,9.80
2023-04-08T22:15:58.084Z,9.80
2023-04-08T22:18:27.255Z,9.90
2023-04-08T22:20:57.461Z,9.90
2023-04-08T22:23:26.208Z,10.00
2023-04-08T22:25:54.910Z,10.00
2023-04-08T22:28:23.614Z,10.00
2023-04-08T22:30:55.003Z,10.20
2023-04-08T22:33:23.757Z,10.10
2023-04-08T22:35:52.446Z,10.20
2023-04-08T22:38:22.421Z,10.10
2023-04-08T22:40:51.097Z,10.20
2023-04-08T22:43:19.807Z,10.10
2023-04-08T22:45:48.467Z,10.10
2023-04-08T22:48:17.103Z,10.10
2023-04-08T22:50:45.839Z,10.10
2023-04-08T22:53:14.480Z,10.10
2023-04-08T22:55:44.404Z,10.10
2023-04-08T22:58:12.966Z,10.20
2023-04-08T23:00:41.749Z,10.20
2023-04-08T23:03:10.461Z,10.10
2023-04-08T23:05:39.147Z,10.20
2023-04-08T23:08:07.879Z,10.20
2023-04-08T23:10:36.448Z,10.20
2023-04-08T23:13:06.515Z,10.20
2023-04-08T23:15:35.140Z,10.20
2023-04-08T23:18:03.818Z,10.20
2023-04-08T23:20:32.387Z,10.20
2023-04-08T23:23:02.461Z,10.20
2023-04-08T23:25:31.138Z,10.20
2023-04-08T23:27:59.702Z,10.20
2023-04-08T23:30:29.777Z,10.20
2023-04-08T23:32:58.461Z,10.30
2023-04-08T23:35:27.104Z,10.30
2023-04-08T23:37:55.723Z,10.30
2023-04-08T23:40:24.307Z,10.30
2023-04-08T23:42:52.887Z,10.30
2023-04-08T23:45:21.520Z,10.30
2023-04-08T23:47:51.678Z,10.30
2023-04-08T23:50:22.991Z,10.30
2023-04-08T23:52:51.584Z,10.30
2023-04-08T23:55:20.378Z,10.30
2023-04-08T23:57:50.718Z,10.30
